St. Johann, Austria
Current Conditions -  °F | °C
As of 12:50 AM on Tuesday 25 Nov 2014 (Local Time) from LOWS Reporting Station
Broken Clouds Broken Clouds  
Wind Chill: 43°   Ceiling: 600
Heat Index: 43°   Visibility: 4mi
Dew Point: 43°   Wind: 3mph
Humidity: 100%   Direction: 330°NNW
Pressure: 30.27"   Gusts: NA
Location:  47.52°N, 12.45°E
Report Text: LOWS 242250Z AUTO 33003KT 6000 FEW004 BKN006 06/06 Q1025
Loading
Personal Weather Stations






























Interactive Weather Map New forecast layout! Learn more

10-Day Weather Forecast

Advertisements
Track Severe Weather on mobile